Famagusta, Cyprus
Current Conditions -  °F | °C
As of 12:50 PM on Friday 28 Nov 2014 (Local Time) from LCEN Reporting Station
Broken Clouds Broken Clouds  
Wind Chill: 64°   Ceiling: 20000
Heat Index: 64°   Visibility: 6mi
Dew Point: 46°   Wind: 8mph
Humidity: 52%   Direction: 300°WNW
Pressure: 30.18"   Gusts: NA
Location:  35.33°N, 34.07°E
Report Text: LCEN 280950Z 30007KT 260V340 9999 FEW025 SCT040 BKN200 18/08 Q1022 NOSIG
Loading
Personal Weather Stations






























Interactive Weather Map New forecast layout! Learn more

10-Day Weather Forecast

Advertisements
Track Severe Weather on mobile